createdAt,value
2022-08-25T00:02:01.996Z,60.57
2022-08-25T00:04:33.783Z,59.97
2022-08-25T00:07:10.618Z,60.06
2022-08-25T00:09:39.987Z,59.85
2022-08-25T00:12:11.882Z,60.33
2022-08-25T00:14:42.620Z,60.70
2022-08-25T00:17:11.802Z,60.89
2022-08-25T00:19:43.594Z,60.79
2022-08-25T00:22:12.845Z,60.31
2022-08-25T00:24:42.052Z,60.85
2022-08-25T00:27:13.703Z,60.46
2022-08-25T00:29:42.943Z,60.85
2022-08-25T00:32:12.926Z,61.27
2022-08-25T00:34:47.817Z,61.37
2022-08-25T00:37:17.761Z,61.67
2022-08-25T00:39:47.779Z,61.91
2022-08-25T00:42:20.336Z,61.57
2022-08-25T00:44:49.546Z,61.18
2022-08-25T00:47:19.227Z,60.92
2022-08-25T00:49:52.295Z,61.01
2022-08-25T00:52:25.716Z,61.40
2022-08-25T00:55:05.752Z,61.23
2022-08-25T00:57:44.681Z,61.87
2022-08-25T01:00:19.362Z,61.87
2022-08-25T01:02:50.331Z,61.92
2022-08-25T01:05:26.052Z,61.92
2022-08-25T01:07:58.584Z,61.53
2022-08-25T01:10:43.105Z,62.03
2022-08-25T01:13:19.265Z,62.47
2022-08-25T01:15:58.584Z,62.17
2022-08-25T01:18:29.214Z,62.40
2022-08-25T01:21:01.637Z,62.68
2022-08-25T01:23:31.703Z,62.54
2022-08-25T01:26:09.128Z,63.40
2022-08-25T01:28:59.054Z,63.41
2022-08-25T01:31:33.907Z,63.26
2022-08-25T01:34:03.278Z,63.21
2022-08-25T01:36:36.217Z,63.22
2022-08-25T01:39:07.892Z,63.63
2022-08-25T01:41:52.224Z,62.97
2022-08-25T01:44:21.388Z,62.76
2022-08-25T01:46:50.473Z,62.72
2022-08-25T01:49:24.846Z,62.95
2022-08-25T01:52:04.685Z,62.90
2022-08-25T01:54:33.992Z,62.88
2022-08-25T01:57:04.472Z,62.98
2022-08-25T01:59:33.798Z,62.99
2022-08-25T02:02:08.424Z,63.09
2022-08-25T02:04:40.779Z,63.52
2022-08-25T02:07:16.002Z,63.60
2022-08-25T02:09:46.580Z,63.37
2022-08-25T02:12:16.101Z,63.68
2022-08-25T02:15:07.645Z,63.79
2022-08-25T02:17:36.577Z,62.95
2022-08-25T02:20:08.098Z,63.75
2022-08-25T02:22:56.793Z,63.89
2022-08-25T02:25:26.491Z,63.43
2022-08-25T02:27:55.709Z,64.26
2022-08-25T02:30:25.140Z,64.32
2022-08-25T02:32:54.822Z,64.84
2022-08-25T02:35:24.379Z,64.99
2022-08-25T02:37:55.873Z,65.55
2022-08-25T02:40:30.149Z,65.20
2022-08-25T02:42:59.261Z,65.57
2022-08-25T02:45:28.471Z,65.52
2022-08-25T02:47:57.996Z,65.58
2022-08-25T02:50:27.540Z,65.58
2022-08-25T02:52:58.504Z,65.77
2022-08-25T02:55:27.700Z,66.01
2022-08-25T02:57:56.793Z,65.97
2022-08-25T03:00:26.296Z,65.26
2022-08-25T03:02:55.690Z,65.29
2022-08-25T03:05:25.111Z,64.82
2022-08-25T03:10:32.159Z,64.18
2022-08-25T03:13:01.014Z,62.95
2022-08-25T03:15:37.313Z,63.56
2022-08-25T03:18:08.694Z,62.69
2022-08-25T03:20:43.043Z,62.52
2022-08-25T03:23:12.296Z,62.39
2022-08-25T03:25:57.058Z,62.39
2022-08-25T03:28:35.307Z,62.43
2022-08-25T03:31:04.647Z,62.38
2022-08-25T03:33:34.001Z,62.47
2022-08-25T03:36:03.248Z,62.32
2022-08-25T03:38:32.412Z,62.31
2022-08-25T03:41:17.072Z,62.17
2022-08-25T03:43:51.438Z,61.83
2022-08-25T03:46:21.827Z,60.93
2022-08-25T03:48:58.524Z,61.10
2022-08-25T03:51:31.149Z,60.77
2022-08-25T03:54:08.179Z,60.19
2022-08-25T03:56:39.613Z,59.73
2022-08-25T03:59:16.064Z,59.56
2022-08-25T04:01:49.285Z,59.26
2022-08-25T04:04:21.189Z,58.88
2022-08-25T04:06:50.429Z,58.13
2022-08-25T04:09:19.605Z,58.30
2022-08-25T04:11:50.868Z,57.69
2022-08-25T04:14:24.241Z,56.80
2022-08-25T04:16:58.532Z,56.40
2022-08-25T04:19:27.640Z,55.78
2022-08-25T04:21:57.345Z,55.13
2022-08-25T04:27:11.133Z,54.18
2022-08-25T04:29:40.483Z,53.77
2022-08-25T04:32:09.847Z,54.15
2022-08-25T04:34:39.265Z,53.50
2022-08-25T04:37:08.720Z,53.23
2022-08-25T04:39:38.235Z,52.85
2022-08-25T04:42:09.739Z,52.70
2022-08-25T04:44:44.529Z,52.14
2022-08-25T04:47:16.066Z,52.01
2022-08-25T04:49:45.383Z,51.52
2022-08-25T04:52:14.812Z,51.54
2022-08-25T04:54:44.622Z,51.90
2022-08-25T04:57:15.801Z,51.32
2022-08-25T04:59:44.953Z,51.09
2022-08-25T05:02:15.044Z,50.71
2022-08-25T05:04:44.588Z,49.83
2022-08-25T05:07:14.525Z,48.85
2022-08-25T05:09:43.916Z,48.40
2022-08-25T05:12:14.965Z,47.62
2022-08-25T05:14:50.197Z,46.27
2022-08-25T05:17:19.428Z,45.95
2022-08-25T05:19:51.776Z,45.96
2022-08-25T05:22:21.078Z,45.91
2022-08-25T05:24:52.946Z,45.51
2022-08-25T05:27:27.251Z,45.34
2022-08-25T05:29:58.626Z,45.00
2022-08-25T05:32:27.534Z,45.74
2022-08-25T05:34:56.561Z,44.66
2022-08-25T05:37:25.963Z,44.62
2022-08-25T05:39:55.201Z,44.12
2022-08-25T05:42:30.038Z,43.36
2022-08-25T05:45:01.329Z,43.20
2022-08-25T05:47:32.236Z,43.54
2022-08-25T05:50:06.590Z,43.05
2022-08-25T05:52:35.743Z,43.38
2022-08-25T05:55:07.155Z,42.59
2022-08-25T05:57:37.913Z,43.16
2022-08-25T06:00:11.315Z,42.18
2022-08-25T06:02:41.645Z,42.46
2022-08-25T06:05:11.418Z,42.45
2022-08-25T06:07:40.534Z,42.85
2022-08-25T06:10:18.347Z,42.07
2022-08-25T06:12:48.669Z,41.19
2022-08-25T06:15:22.020Z,40.43
2022-08-25T06:18:00.318Z,40.93
2022-08-25T06:20:32.842Z,41.38
2022-08-25T06:23:02.682Z,41.91
2022-08-25T06:25:33.203Z,41.18
2022-08-25T06:28:07.495Z,39.47
2022-08-25T06:30:45.811Z,39.14
2022-08-25T06:33:15.749Z,38.86
2022-08-25T06:35:46.271Z,38.16
2022-08-25T06:38:16.960Z,38.28
2022-08-25T06:40:51.682Z,37.65
2022-08-25T06:43:21.033Z,38.19
2022-08-25T06:45:52.145Z,39.01
2022-08-25T06:48:23.349Z,37.78
2022-08-25T06:51:07.097Z,37.85
2022-08-25T06:53:37.290Z,36.85
2022-08-25T06:56:07.278Z,36.11
2022-08-25T06:58:36.481Z,35.74
2022-08-25T07:01:19.778Z,35.69
2022-08-25T07:03:50.119Z,35.56
2022-08-25T07:06:27.123Z,35.45
2022-08-25T07:08:56.767Z,35.38
2022-08-25T07:11:27.482Z,35.97
2022-08-25T07:14:02.286Z,35.40
2022-08-25T07:16:34.035Z,34.69
2022-08-25T07:19:04.005Z,35.02
2022-08-25T07:21:35.977Z,35.41
2022-08-25T07:24:13.790Z,35.51
2022-08-25T07:26:46.240Z,35.29
2022-08-25T07:29:18.391Z,35.69
2022-08-25T07:31:51.032Z,35.80
2022-08-25T07:34:38.990Z,35.23
2022-08-25T07:37:08.613Z,35.17
2022-08-25T07:39:37.830Z,34.92
2022-08-25T07:42:11.999Z,34.98
2022-08-25T07:44:43.406Z,34.83
2022-08-25T07:47:21.407Z,34.24
2022-08-25T07:49:52.484Z,34.22
2022-08-25T07:52:27.228Z,33.61
2022-08-25T07:54:56.335Z,33.74
2022-08-25T07:57:30.541Z,33.52
2022-08-25T08:00:00.662Z,33.38
2022-08-25T08:02:31.890Z,33.08
2022-08-25T08:05:06.058Z,34.07
2022-08-25T08:07:43.401Z,33.18
2022-08-25T08:15:45.640Z,32.08
2022-08-25T08:18:19.314Z,32.58
2022-08-25T08:20:50.311Z,32.51
2022-08-25T08:23:27.609Z,31.75
2022-08-25T08:25:57.661Z,32.33
2022-08-25T08:31:10.584Z,30.85
2022-08-25T08:33:48.531Z,31.04
2022-08-25T08:36:18.980Z,30.86
2022-08-25T08:38:55.658Z,30.72
2022-08-25T08:42:12.423Z,30.46
2022-08-25T08:45:10.228Z,30.37
2022-08-25T08:47:52.270Z,29.78
2022-08-25T08:50:36.770Z,30.14
2022-08-25T08:53:12.480Z,29.78
2022-08-25T08:55:52.517Z,29.72
2022-08-25T08:58:42.919Z,29.71
2022-08-25T09:01:15.711Z,29.60
2022-08-25T09:03:55.344Z,29.29
2022-08-25T09:06:38.777Z,29.04
2022-08-25T09:09:10.328Z,28.67
2022-08-25T09:11:53.376Z,27.86
2022-08-25T09:14:41.934Z,28.16
2022-08-25T09:17:21.609Z,27.40
2022-08-25T09:20:22.246Z,27.39
2022-08-25T09:23:10.045Z,26.47
2022-08-25T09:25:54.064Z,26.48
2022-08-25T09:31:15.823Z,26.13
2022-08-25T09:33:50.587Z,25.70
2022-08-25T09:36:20.274Z,25.20
2022-08-25T09:38:56.698Z,24.52
2022-08-25T09:41:46.964Z,25.67
2022-08-25T09:47:03.471Z,24.63
2022-08-25T09:49:41.554Z,24.39
2022-08-25T09:52:36.227Z,25.01
2022-08-25T09:55:32.386Z,25.37
2022-08-25T09:58:02.331Z,25.06
2022-08-25T10:00:38.964Z,25.61
2022-08-25T10:03:15.347Z,25.69
2022-08-25T10:06:03.108Z,25.52
2022-08-25T10:08:41.063Z,25.03
2022-08-25T10:11:14.939Z,25.53
2022-08-25T10:13:46.490Z,25.51
2022-08-25T10:16:28.625Z,25.47
2022-08-25T10:19:07.829Z,25.86
2022-08-25T10:21:38.018Z,25.83
2022-08-25T10:24:08.695Z,25.79
2022-08-25T10:26:46.682Z,26.21
2022-08-25T10:29:29.489Z,25.70
2022-08-25T10:32:24.101Z,25.58
2022-08-25T10:34:56.897Z,25.72
2022-08-25T10:37:39.807Z,25.47
2022-08-25T10:40:18.688Z,26.01
2022-08-25T10:43:08.184Z,26.10
2022-08-25T10:45:44.684Z,26.04
2022-08-25T10:48:39.241Z,25.82
2022-08-25T10:51:25.285Z,25.68
2022-08-25T10:54:05.194Z,25.80
2022-08-25T10:56:40.703Z,26.12
2022-08-25T10:59:40.510Z,26.24
2022-08-25T11:02:41.403Z,26.31
2022-08-25T11:05:14.108Z,25.85
2022-08-25T11:07:48.398Z,26.10
2022-08-25T11:10:24.152Z,26.43
2022-08-25T11:12:57.691Z,26.67
2022-08-25T11:15:34.963Z,26.19
2022-08-25T11:18:14.539Z,25.85
2022-08-25T11:20:48.478Z,26.25
2022-08-25T11:23:27.453Z,26.63
2022-08-25T11:26:02.701Z,26.17
2022-08-25T11:28:38.426Z,25.87
2022-08-25T11:31:11.969Z,26.50
2022-08-25T11:33:41.280Z,25.99
2022-08-25T11:36:24.461Z,25.68
2022-08-25T11:39:14.956Z,25.69
2022-08-25T11:44:53.928Z,25.11
2022-08-25T11:47:55.296Z,25.32
2022-08-25T11:50:31.706Z,25.27
2022-08-25T11:53:30.323Z,25.10
2022-08-25T11:56:06.138Z,24.91
2022-08-25T11:58:49.734Z,25.19
2022-08-25T12:01:48.977Z,25.32
2022-08-25T12:04:44.279Z,25.79
2022-08-25T12:07:21.048Z,25.72
2022-08-25T12:10:27.155Z,25.04
2022-08-25T12:13:08.115Z,25.43
2022-08-25T12:16:06.819Z,25.29
2022-08-25T12:18:46.776Z,25.10
2022-08-25T12:21:40.174Z,25.22
2022-08-25T12:24:17.074Z,25.18
2022-08-25T12:26:59.424Z,24.85
2022-08-25T12:29:42.998Z,25.15
2022-08-25T12:32:36.173Z,24.79
2022-08-25T12:35:23.707Z,24.61
2022-08-25T12:38:02.765Z,24.11
2022-08-25T12:40:37.494Z,23.88
2022-08-25T12:43:12.378Z,24.00
2022-08-25T12:45:49.223Z,24.10
2022-08-25T12:48:44.661Z,24.49
2022-08-25T12:57:40.507Z,24.77
2022-08-25T13:00:18.431Z,25.21
2022-08-25T13:03:23.423Z,25.46
2022-08-25T13:06:36.980Z,25.43
2022-08-25T13:09:41.514Z,25.33
2022-08-25T13:12:23.912Z,25.00
2022-08-25T13:15:01.403Z,25.04
2022-08-25T13:17:36.210Z,25.27
2022-08-25T13:20:20.767Z,25.61
2022-08-25T13:23:02.661Z,25.82
2022-08-25T13:25:34.283Z,25.59
2022-08-25T13:28:11.239Z,25.49
2022-08-25T13:30:45.737Z,25.55
2022-08-25T13:33:21.851Z,25.49
2022-08-25T13:36:14.425Z,25.72
2022-08-25T13:38:45.804Z,25.21
2022-08-25T13:44:13.218Z,24.99
2022-08-25T13:46:43.376Z,25.58
2022-08-25T13:49:13.087Z,25.72
2022-08-25T13:52:00.222Z,25.58
2022-08-25T13:54:32.941Z,25.74
2022-08-25T13:57:21.297Z,25.59
2022-08-25T13:59:57.635Z,25.62
2022-08-25T14:02:49.926Z,26.29
2022-08-25T14:05:36.102Z,25.70
2022-08-25T14:08:23.465Z,26.12
2022-08-25T14:11:07.737Z,25.97
2022-08-25T14:13:51.268Z,26.16
2022-08-25T14:16:25.694Z,26.44
2022-08-25T14:18:58.585Z,26.50
2022-08-25T14:21:35.228Z,26.57
2022-08-25T14:24:11.011Z,26.58
2022-08-25T14:26:54.595Z,26.57
2022-08-25T14:29:24.814Z,26.47
2022-08-25T14:31:57.210Z,26.88
2022-08-25T14:34:29.445Z,26.90
2022-08-25T14:37:04.989Z,26.82
2022-08-25T14:39:34.599Z,26.98
2022-08-25T14:42:03.759Z,26.77
2022-08-25T14:47:11.469Z,26.69
2022-08-25T14:49:45.536Z,26.87
2022-08-25T14:52:26.270Z,27.02
2022-08-25T14:54:56.865Z,26.71
2022-08-25T14:57:26.266Z,26.80
2022-08-25T15:00:04.739Z,26.67
2022-08-25T15:02:40.092Z,26.55
2022-08-25T15:05:12.392Z,26.52
2022-08-25T15:07:54.543Z,27.01
2022-08-25T15:10:25.039Z,27.42
2022-08-25T15:12:54.889Z,27.78
2022-08-25T15:15:25.990Z,28.07
2022-08-25T15:18:00.947Z,27.67
2022-08-25T15:20:30.847Z,28.57
2022-08-25T15:23:00.064Z,29.54
2022-08-25T15:25:30.022Z,28.98
2022-08-25T15:27:59.810Z,29.11
2022-08-25T15:30:31.276Z,29.86
2022-08-25T15:33:07.952Z,29.62
2022-08-25T15:35:43.532Z,29.95
2022-08-25T15:38:14.779Z,30.40
2022-08-25T15:40:43.899Z,30.91
2022-08-25T15:43:15.533Z,30.86
2022-08-25T15:45:46.478Z,31.52
2022-08-25T15:48:17.818Z,31.98
2022-08-25T15:50:47.129Z,30.96
2022-08-25T15:53:16.267Z,31.53
2022-08-25T15:55:52.383Z,32.46
2022-08-25T15:58:29.903Z,32.50
2022-08-25T16:00:59.851Z,32.51
2022-08-25T16:03:31.545Z,32.35
2022-08-25T16:06:01.072Z,32.67
2022-08-25T16:08:36.912Z,33.12
2022-08-25T16:11:08.985Z,33.16
2022-08-25T16:13:39.025Z,33.37
2022-08-25T16:16:16.456Z,33.01
2022-08-25T16:18:48.630Z,34.02
2022-08-25T16:21:29.828Z,34.13
2022-08-25T16:24:05.500Z,33.88
2022-08-25T16:26:45.106Z,34.76
2022-08-25T16:29:17.865Z,34.75
2022-08-25T16:34:28.427Z,35.25
2022-08-25T16:36:58.666Z,35.51
2022-08-25T16:39:28.701Z,35.31
2022-08-25T16:41:58.455Z,35.69
2022-08-25T16:44:28.198Z,36.22
2022-08-25T16:46:57.602Z,36.27
2022-08-25T16:49:29.059Z,36.25
2022-08-25T16:51:58.558Z,36.39
2022-08-25T16:54:46.732Z,36.43
2022-08-25T16:57:17.702Z,36.50
2022-08-25T16:59:47.379Z,36.91
2022-08-25T17:02:16.774Z,36.95
2022-08-25T17:04:52.828Z,37.46
2022-08-25T17:07:26.275Z,37.30
2022-08-25T17:10:03.181Z,37.51
2022-08-25T17:12:45.288Z,38.08
2022-08-25T17:15:19.478Z,37.61
2022-08-25T17:17:50.685Z,38.10
2022-08-25T17:20:22.485Z,38.65
2022-08-25T17:22:51.931Z,38.23
2022-08-25T17:25:31.113Z,38.40
2022-08-25T17:28:00.636Z,38.75
2022-08-25T17:30:31.866Z,38.74
2022-08-25T17:33:08.221Z,39.09
2022-08-25T17:35:42.828Z,38.96
2022-08-25T17:38:14.409Z,38.82
2022-08-25T17:40:44.546Z,39.08
2022-08-25T17:43:13.921Z,38.91
2022-08-25T17:45:43.739Z,39.57
2022-08-25T17:48:13.713Z,40.25
2022-08-25T17:50:45.117Z,39.85
2022-08-25T17:53:17.186Z,40.54
2022-08-25T17:55:58.688Z,41.52
2022-08-25T17:58:29.357Z,41.90
2022-08-25T18:00:59.727Z,42.50
2022-08-25T18:03:29.568Z,42.35
2022-08-25T18:06:00.929Z,42.78
2022-08-25T18:08:35.364Z,43.07
2022-08-25T18:11:05.433Z,43.37
2022-08-25T18:16:24.445Z,43.83
2022-08-25T18:18:55.418Z,43.77
2022-08-25T18:21:30.526Z,44.01
2022-08-25T18:24:02.153Z,44.44
2022-08-25T18:26:43.785Z,44.46
2022-08-25T18:29:14.024Z,45.56
2022-08-25T18:31:48.638Z,45.26
2022-08-25T18:34:18.936Z,44.77
2022-08-25T18:39:39.493Z,44.11
2022-08-25T18:42:09.473Z,44.37
2022-08-25T18:44:38.976Z,44.32
2022-08-25T18:47:14.546Z,43.86
2022-08-25T18:49:50.437Z,44.31
2022-08-25T18:52:29.689Z,44.68
2022-08-25T18:55:00.134Z,44.44
2022-08-25T18:57:47.064Z,44.64
2022-08-25T19:00:18.414Z,45.14
2022-08-25T19:02:47.618Z,43.93
2022-08-25T19:05:20.203Z,44.66
2022-08-25T19:07:54.720Z,45.18
2022-08-25T19:10:24.159Z,44.21
2022-08-25T19:12:54.486Z,44.28
2022-08-25T19:15:29.833Z,44.27
2022-08-25T19:18:09.950Z,44.52
2022-08-25T19:20:40.615Z,44.50
2022-08-25T19:23:17.781Z,44.44
2022-08-25T19:25:47.201Z,44.09
2022-08-25T19:28:16.764Z,44.09
2022-08-25T19:30:50.420Z,43.56
2022-08-25T19:33:42.254Z,43.73
2022-08-25T19:36:14.690Z,45.85
2022-08-25T19:38:46.586Z,45.92
2022-08-25T19:41:21.919Z,46.53
2022-08-25T19:43:57.696Z,47.30
2022-08-25T19:46:33.280Z,47.90
2022-08-25T19:49:08.329Z,48.07
2022-08-25T19:51:39.879Z,48.81
2022-08-25T19:54:14.241Z,49.16
2022-08-25T19:59:20.463Z,48.50
2022-08-25T20:01:52.263Z,48.47
2022-08-25T20:04:26.637Z,49.27
2022-08-25T20:06:56.197Z,49.30
2022-08-25T20:09:39.031Z,49.94
2022-08-25T20:15:10.166Z,49.01
2022-08-25T20:17:41.467Z,49.17
2022-08-25T20:23:26.414Z,49.45
2022-08-25T20:25:57.361Z,49.38
2022-08-25T20:28:26.676Z,49.43
2022-08-25T20:30:57.491Z,49.41
2022-08-25T20:33:26.649Z,49.84
2022-08-25T20:35:55.985Z,49.66
2022-08-25T20:38:26.692Z,50.16
2022-08-25T20:40:56.152Z,49.90
2022-08-25T20:43:29.154Z,49.98
2022-08-25T20:46:02.855Z,50.42
2022-08-25T20:48:33.857Z,50.48
2022-08-25T20:51:06.985Z,50.45
2022-08-25T20:53:38.775Z,50.75
2022-08-25T20:56:10.122Z,50.70
2022-08-25T20:58:42.301Z,50.54
2022-08-25T21:01:17.497Z,50.56
2022-08-25T21:03:52.421Z,50.96
2022-08-25T21:06:21.534Z,51.19
2022-08-25T21:08:51.077Z,51.75
2022-08-25T21:11:21.796Z,52.29
2022-08-25T21:13:52.939Z,52.54
2022-08-25T21:16:23.513Z,52.75
2022-08-25T21:18:52.923Z,53.01
2022-08-25T21:21:22.075Z,53.61
2022-08-25T21:23:56.327Z,53.64
2022-08-25T21:26:33.442Z,53.78
2022-08-25T21:29:07.589Z,54.11
2022-08-25T21:31:38.148Z,53.82
2022-08-25T21:34:08.681Z,53.77
2022-08-25T21:36:37.868Z,54.76
2022-08-25T21:41:49.203Z,54.71
2022-08-25T21:44:20.826Z,55.41
2022-08-25T21:46:53.688Z,55.06
2022-08-25T21:49:25.136Z,54.80
2022-08-25T21:52:04.406Z,55.20
2022-08-25T21:54:34.384Z,55.38
2022-08-25T21:57:06.327Z,55.83
2022-08-25T21:59:43.700Z,55.85
2022-08-25T22:02:17.148Z,56.03
2022-08-25T22:04:56.266Z,55.85
2022-08-25T22:07:26.382Z,55.17
2022-08-25T22:09:55.495Z,55.52
2022-08-25T22:12:24.926Z,55.52
2022-08-25T22:14:56.152Z,55.93
2022-08-25T22:17:30.503Z,56.29
2022-08-25T22:20:00.360Z,56.03
2022-08-25T22:22:29.640Z,55.94
2022-08-25T22:24:58.818Z,56.36
2022-08-25T22:27:28.706Z,56.63
2022-08-25T22:30:05.818Z,57.50
2022-08-25T22:32:35.619Z,57.55
2022-08-25T22:35:04.944Z,57.53
2022-08-25T22:37:35.056Z,57.63
2022-08-25T22:40:06.639Z,56.98
2022-08-25T22:42:35.605Z,55.87
2022-08-25T22:45:07.461Z,56.32
2022-08-25T22:47:37.447Z,56.38
2022-08-25T22:50:07.543Z,56.29
2022-08-25T22:55:18.393Z,56.97
2022-08-25T22:57:56.791Z,56.62
2022-08-25T23:00:28.009Z,57.41
2022-08-25T23:02:57.245Z,57.12
2022-08-25T23:05:26.381Z,56.71
2022-08-25T23:07:57.282Z,57.19
2022-08-25T23:10:26.984Z,57.97
2022-08-25T23:13:01.716Z,57.95
2022-08-25T23:15:32.933Z,58.95
2022-08-25T23:18:03.381Z,59.35
2022-08-25T23:20:45.836Z,59.43
2022-08-25T23:23:15.594Z,59.41
2022-08-25T23:25:46.211Z,59.71
2022-08-25T23:28:21.298Z,59.67
2022-08-25T23:30:59.269Z,59.35
2022-08-25T23:33:28.896Z,60.04
2022-08-25T23:36:02.141Z,60.36
2022-08-25T23:38:31.569Z,60.23
2022-08-25T23:41:02.064Z,60.36
2022-08-25T23:43:31.917Z,60.71
2022-08-25T23:46:03.222Z,61.15
2022-08-25T23:48:37.986Z,61.33
2022-08-25T23:51:08.857Z,61.47
2022-08-25T23:53:38.624Z,61.87
2022-08-25T23:56:08.032Z,61.91
2022-08-25T23:58:37.878Z,62.21
